Station Historical Data
Daily Summary for February 19, 2018 Units:  English    Metric   Both
« Previous Day
Next Day »
Daily Weekly Monthly Yearly Custom
  High: Low: Average:
Temperature: 58.2 °F 27.4 °F 45.1 °F
Dew Point: 55.1 °F 21.8 °F 39 °F
Humidity: 92% 63% 80%
Wind Speed: 13.0mph 0.0mph 4mph
Wind Gust: 23.0mph - -
Wind- - SSW
Pressure: 30.25 in 30.02 in -
Precipitation: 0.00 in    
Historical Graphs
 
 
Tabular Data for February 19, 2018
Time Temperature Dew Point Pressure Wind Wind Speed Wind Gust Humidity Rainfall Rate (Hourly)
00:04 28.7 °F 22.7 °F 30.25 in Calm     78% 0.00 in
00:09 28.8 °F 22.8 °F 30.25 in Calm     78% 0.00 in
00:14 29.0 °F 23.0 °F 30.24 in Calm     78% 0.00 in
00:19 29.2 °F 23.2 °F 30.24 in SE 1.0 mph 3.0 mph 78% 0.00 in
00:24 29.5 °F 23.2 °F 30.25 in Calm   3.0 mph 77% 0.00 in
00:29 29.6 °F 23.3 °F 30.24 in Calm   1.0 mph 77% 0.00 in
00:34 29.6 °F 23.0 °F 30.24 in Calm     76% 0.00 in
00:39 29.4 °F 22.8 °F 30.23 in Calm     76% 0.00 in
00:44 29.2 °F 22.9 °F 30.23 in Calm   1.0 mph 77% 0.00 in
00:49 29.0 °F 22.7 °F 30.23 in Calm   1.0 mph 77% 0.00 in
00:54 28.9 °F 22.6 °F 30.23 in Calm     77% 0.00 in
00:59 28.6 °F 22.3 °F 30.23 in Calm     77% 0.00 in
01:04 28.3 °F 22.3 °F 30.23 in Calm     78% 0.00 in
01:10 28.4 °F 22.7 °F 30.23 in Calm     79% 0.00 in
01:14 28.4 °F 22.4 °F 30.23 in Calm     78% 0.00 in
01:19 28.3 °F 22.3 °F 30.23 in Calm     78% 0.00 in
01:24 28.5 °F 22.5 °F 30.23 in Calm     78% 0.00 in
01:29 28.4 °F 22.4 °F 30.22 in Calm   1.0 mph 78% 0.00 in
01:34 28.5 °F 22.5 °F 30.22 in Calm   1.0 mph 78% 0.00 in
01:39 28.2 °F 22.2 °F 30.22 in Calm     78% 0.00 in
01:44 27.9 °F 21.9 °F 30.22 in Calm     78% 0.00 in
01:49 27.7 °F 22.0 °F 30.22 in Calm     79% 0.00 in
01:54 27.5 °F 21.8 °F 30.22 in Calm     79% 0.00 in
01:59 27.4 °F 22.0 °F 30.21 in Calm     80% 0.00 in
02:04 27.4 °F 22.0 °F 30.21 in Calm     80% 0.00 in
02:09 27.4 °F 22.0 °F 30.21 in Calm     80% 0.00 in
02:14 27.5 °F 22.1 °F 30.20 in Calm     80% 0.00 in
02:19 27.8 °F 22.4 °F 30.20 in Calm     80% 0.00 in
02:24 27.9 °F 22.5 °F 30.20 in Calm     80% 0.00 in
02:29 27.9 °F 22.5 °F 30.20 in Calm     80% 0.00 in
02:34 27.9 °F 22.5 °F 30.20 in Calm     80% 0.00 in
02:39 28.1 °F 22.7 °F 30.19 in Calm     80% 0.00 in
02:44 28.3 °F 22.9 °F 30.18 in Calm     80% 0.00 in
02:49 28.5 °F 22.8 °F 30.18 in Calm   1.0 mph 79% 0.00 in
02:54 28.6 °F 22.9 °F 30.18 in Calm   1.0 mph 79% 0.00 in
02:59 28.7 °F 23.0 °F 30.18 in Calm   1.0 mph 79% 0.00 in
03:04 28.8 °F 23.1 °F 30.17 in Calm   1.0 mph 79% 0.00 in
03:09 29.0 °F 23.3 °F 30.17 in Calm     79% 0.00 in
03:14 29.2 °F 23.2 °F 30.17 in Calm     78% 0.00 in
03:19 29.3 °F 23.3 °F 30.17 in Calm     78% 0.00 in
03:25 29.4 °F 23.1 °F 30.17 in Calm     77% 0.00 in
03:30 29.6 °F 23.3 °F 30.17 in Calm     77% 0.00 in
03:34 29.7 °F 23.1 °F 30.17 in Calm     76% 0.00 in
03:39 29.8 °F 23.5 °F 30.16 in Calm   2.0 mph 77% 0.00 in
03:44 30.4 °F 24.1 °F 30.16 in SE 1.0 mph 3.0 mph 77% 0.00 in
03:49 31.0 °F 24.3 °F 30.16 in SE 1.0 mph 3.0 mph 76% 0.00 in
03:55 31.4 °F 24.4 °F 30.15 in Calm     75% 0.00 in
04:00 31.5 °F 24.2 °F 30.15 in Calm     74% 0.00 in
04:05 31.6 °F 24.6 °F 30.15 in Calm     75% 0.00 in
04:14 31.7 °F 24.7 °F 30.15 in Calm     75% 0.00 in
04:19 32.0 °F 25.0 °F 30.15 in Calm     75% 0.00 in
04:24 31.9 °F 24.6 °F 30.15 in Calm     74% 0.00 in
04:30 31.8 °F 24.8 °F 30.15 in Calm     75% 0.00 in
04:35 31.7 °F 24.7 °F 30.15 in Calm     75% 0.00 in
04:40 31.9 °F 24.9 °F 30.15 in Calm     75% 0.00 in
04:49 32.3 °F 25.6 °F 30.16 in SSE 1.0 mph 4.0 mph 76% 0.00 in
04:54 32.5 °F 25.5 °F 30.16 in South 1.0 mph 3.0 mph 75% 0.00 in
04:59 33.0 °F 25.9 °F 30.16 in Calm   2.0 mph 75% 0.00 in
05:04 33.4 °F 26.0 °F 30.16 in Calm     74% 0.00 in
05:09 33.9 °F 26.5 °F 30.15 in South 2.0 mph 3.0 mph 74% 0.00 in
05:14 34.8 °F 27.4 °F 30.15 in SSE 4.0 mph 5.0 mph 74% 0.00 in
05:19 35.7 °F 27.6 °F 30.15 in South 2.0 mph 5.0 mph 72% 0.00 in
05:24 36.4 °F 27.9 °F 30.15 in South 3.0 mph 5.0 mph 71% 0.00 in
05:29 37.0 °F 28.1 °F 30.14 in South 3.0 mph 5.0 mph 70% 0.00 in
05:34 37.4 °F 28.2 °F 30.15 in South 3.0 mph 8.0 mph 69% 0.00 in
05:39 37.7 °F 28.1 °F 30.15 in South 3.0 mph 8.0 mph 68% 0.00 in
05:44 38.0 °F 28.4 °F 30.15 in South 3.0 mph 6.0 mph 68% 0.00 in
05:49 38.4 °F 28.8 °F 30.15 in South 4.0 mph 10.0 mph 68% 0.00 in
05:54 38.8 °F 28.8 °F 30.15 in SSW 2.0 mph 8.0 mph 67% 0.00 in
05:59 39.3 °F 28.9 °F 30.15 in South 4.0 mph 9.0 mph 66% 0.00 in
06:04 39.3 °F 28.9 °F 30.16 in South 4.0 mph 8.0 mph 66% 0.00 in
06:09 39.2 °F 28.8 °F 30.15 in South 8.0 mph 9.0 mph 66% 0.00 in
06:14 39.3 °F 28.9 °F 30.15 in South 5.0 mph 8.0 mph 66% 0.00 in
06:19 39.3 °F 28.9 °F 30.15 in South 4.0 mph 7.0 mph 66% 0.00 in
06:24 39.6 °F 29.2 °F 30.15 in South 8.0 mph 11.0 mph 66% 0.00 in
06:29 39.7 °F 28.9 °F 30.15 in SSE 6.0 mph 8.0 mph 65% 0.00 in
06:34 39.7 °F 28.9 °F 30.14 in South 5.0 mph 11.0 mph 65% 0.00 in
06:39 39.7 °F 28.9 °F 30.14 in South 4.0 mph 11.0 mph 65% 0.00 in
06:44 39.6 °F 28.8 °F 30.13 in South 4.0 mph 10.0 mph 65% 0.00 in
06:49 39.6 °F 29.2 °F 30.13 in South 4.0 mph 9.0 mph 66% 0.00 in
06:54 39.6 °F 29.2 °F 30.13 in South 4.0 mph 9.0 mph 66% 0.00 in
06:59 39.7 °F 29.3 °F 30.13 in WSW 4.0 mph 11.0 mph 66% 0.00 in
07:04 39.8 °F 29.4 °F 30.14 in SSW 3.0 mph 12.0 mph 66% 0.00 in
07:09 40.1 °F 29.6 °F 30.14 in South 4.0 mph 12.0 mph 66% 0.00 in
07:14 40.3 °F 29.8 °F 30.15 in SSE 4.0 mph 8.0 mph 66% 0.00 in
07:19 40.5 °F 30.0 °F 30.15 in South 5.0 mph 10.0 mph 66% 0.00 in
07:24 40.7 °F 29.8 °F 30.15 in South 4.0 mph 7.0 mph 65% 0.00 in
07:29 40.9 °F 30.0 °F 30.15 in South 4.0 mph 7.0 mph 65% 0.00 in
07:34 41.0 °F 30.1 °F 30.15 in SSW 4.0 mph 7.0 mph 65% 0.00 in
07:39 41.1 °F 30.2 °F 30.15 in SSW 5.0 mph 7.0 mph 65% 0.00 in
07:44 41.3 °F 30.4 °F 30.16 in South 4.0 mph 7.0 mph 65% 0.00 in
07:49 41.7 °F 30.8 °F 30.16 in South 4.0 mph 7.0 mph 65% 0.00 in
07:54 42.0 °F 31.1 °F 30.16 in South 4.0 mph 7.0 mph 65% 0.00 in
07:59 42.5 °F 31.2 °F 30.15 in South 4.0 mph 10.0 mph 64% 0.00 in
08:04 42.8 °F 31.5 °F 30.15 in South 4.0 mph 9.0 mph 64% 0.00 in
08:09 42.9 °F 31.6 °F 30.14 in SSE 3.0 mph 10.0 mph 64% 0.00 in
08:14 42.9 °F 31.6 °F 30.15 in South 5.0 mph 14.0 mph 64% 0.00 in
08:19 43.1 °F 31.7 °F 30.14 in South 5.0 mph 14.0 mph 64% 0.00 in
08:24 43.4 °F 31.6 °F 30.14 in South 5.0 mph 9.0 mph 63% 0.00 in
08:29 43.5 °F 31.7 °F 30.15 in SSE 2.0 mph 7.0 mph 63% 0.00 in
08:34 43.7 °F 31.9 °F 30.14 in South 4.0 mph 9.0 mph 63% 0.00 in
08:39 44.0 °F 32.2 °F 30.13 in SSW 7.0 mph 9.0 mph 63% 0.00 in
08:44 44.3 °F 32.5 °F 30.12 in SSW 6.0 mph 12.0 mph 63% 0.00 in
08:49 44.6 °F 32.8 °F 30.12 in South 6.0 mph 12.0 mph 63% 0.00 in
08:54 45.0 °F 33.2 °F 30.12 in South 5.0 mph 12.0 mph 63% 0.00 in
08:59 45.3 °F 33.4 °F 30.12 in South 5.0 mph 9.0 mph 63% 0.00 in
09:04 45.6 °F 33.7 °F 30.12 in South 5.0 mph 13.0 mph 63% 0.00 in
09:09 45.7 °F 33.8 °F 30.13 in South 4.0 mph 10.0 mph 63% 0.00 in
09:14 45.8 °F 33.9 °F 30.12 in South 3.0 mph 8.0 mph 63% 0.00 in
09:19 45.7 °F 33.8 °F 30.12 in SSW 3.0 mph 9.0 mph 63% 0.00 in
09:24 46.0 °F 34.5 °F 30.12 in South 4.0 mph 11.0 mph 64% 0.00 in
09:29 46.5 °F 35.0 °F 30.12 in South 5.0 mph 11.0 mph 64% 0.00 in
09:34 46.9 °F 35.4 °F 30.12 in South 5.0 mph 11.0 mph 64% 0.00 in
09:39 47.0 °F 35.4 °F 30.12 in South 3.0 mph 9.0 mph 64% 0.00 in
09:44 47.0 °F 35.8 °F 30.10 in South 3.0 mph 10.0 mph 65% 0.00 in
09:49 47.1 °F 35.9 °F 30.11 in South 3.0 mph 10.0 mph 65% 0.00 in
09:54 47.3 °F 36.5 °F 30.10 in SSE 3.0 mph 9.0 mph 66% 0.00 in
09:59 47.6 °F 36.8 °F 30.11 in South 5.0 mph 10.0 mph 66% 0.00 in
10:04 47.8 °F 37.0 °F 30.11 in South 6.0 mph 10.0 mph 66% 0.00 in
10:09 47.9 °F 37.1 °F 30.10 in South 5.0 mph 10.0 mph 66% 0.00 in
10:14 48.1 °F 37.3 °F 30.10 in South 4.0 mph 10.0 mph 66% 0.00 in
10:19 48.2 °F 37.8 °F 30.11 in SSW 6.0 mph 12.0 mph 67% 0.00 in
10:24 48.1 °F 37.7 °F 30.11 in SW 7.0 mph 11.0 mph 67% 0.00 in
10:29 47.9 °F 37.8 °F 30.10 in SW 4.0 mph 12.0 mph 68% 0.00 in
10:34 47.8 °F 38.5 °F 30.10 in South 7.0 mph 13.0 mph 70% 0.00 in
10:39 47.8 °F 38.5 °F 30.10 in South 7.0 mph 15.0 mph 70% 0.00 in
10:44 48.5 °F 39.2 °F 30.10 in South 7.0 mph 17.0 mph 70% 0.00 in
10:49 48.4 °F 39.1 °F 30.10 in South 8.0 mph 17.0 mph 70% 0.00 in
10:54 48.8 °F 39.4 °F 30.09 in South 8.0 mph 16.0 mph 70% 0.00 in
10:59 49.3 °F 39.9 °F 30.09 in South 7.0 mph 16.0 mph 70% 0.00 in
11:04 49.7 °F 40.3 °F 30.09 in South 8.0 mph 16.0 mph 70% 0.00 in
11:09 49.8 °F 40.0 °F 30.09 in SSE 5.0 mph 12.0 mph 69% 0.00 in
11:14 49.5 °F 40.1 °F 30.09 in SW 7.0 mph 16.0 mph 70% 0.00 in
11:19 49.4 °F 40.4 °F 30.09 in SSW 6.0 mph 13.0 mph 71% 0.00 in
11:24 49.1 °F 40.1 °F 30.10 in SSW 12.0 mph 14.0 mph 71% 0.00 in
11:29 48.9 °F 40.3 °F 30.10 in SSW 4.0 mph 14.0 mph 72% 0.00 in
11:34 48.6 °F 40.0 °F 30.10 in SSW 7.0 mph 9.0 mph 72% 0.00 in
11:39 48.5 °F 40.2 °F 30.10 in SSW 7.0 mph 14.0 mph 73% 0.00 in
11:44 48.5 °F 40.6 °F 30.09 in SSW 5.0 mph 14.0 mph 74% 0.00 in
11:49 48.5 °F 40.9 °F 30.08 in SSW 5.0 mph 12.0 mph 75% 0.00 in
11:54 48.9 °F 42.0 °F 30.08 in SSW 7.0 mph 14.0 mph 77% 0.00 in
11:59 48.9 °F 42.0 °F 30.08 in SSW 8.0 mph 15.0 mph 77% 0.00 in
12:04 48.9 °F 42.3 °F 30.08 in SSW 9.0 mph 19.0 mph 78% 0.00 in
12:09 48.8 °F 42.6 °F 30.08 in SSW 8.0 mph 19.0 mph 79% 0.00 in
12:14 48.9 °F 42.7 °F 30.05 in South 7.0 mph 17.0 mph 79% 0.00 in
12:19 49.2 °F 42.6 °F 30.07 in South 8.0 mph 18.0 mph 78% 0.00 in
12:24 49.0 °F 42.8 °F 30.06 in South 8.0 mph 16.0 mph 79% 0.00 in
12:29 48.9 °F 42.7 °F 30.06 in South 7.0 mph 16.0 mph 79% 0.00 in
12:34 48.8 °F 42.9 °F 30.07 in SSW 10.0 mph 18.0 mph 80% 0.00 in
12:39 48.7 °F 43.1 °F 30.06 in South 10.0 mph 10.0 mph 81% 0.00 in
12:44 48.8 °F 43.2 °F 30.06 in South 5.0 mph 12.0 mph 81% 0.00 in
12:49 48.9 °F 43.3 °F 30.06 in South 5.0 mph 11.0 mph 81% 0.00 in
12:54 48.9 °F 43.3 °F 30.07 in SSW 6.0 mph 13.0 mph 81% 0.00 in
12:59 49.1 °F 43.2 °F 30.08 in SW 6.0 mph 13.0 mph 80% 0.00 in
13:04 49.1 °F 43.2 °F 30.08 in SSW 3.0 mph 23.0 mph 80% 0.00 in
13:09 49.2 °F 43.3 °F 30.08 in SW 7.0 mph 23.0 mph 80% 0.00 in
13:14 49.1 °F 43.2 °F 30.08 in SW 7.0 mph 12.0 mph 80% 0.00 in
13:19 49.1 °F 43.2 °F 30.08 in SSW 7.0 mph 17.0 mph 80% 0.00 in
13:24 49.0 °F 43.4 °F 30.08 in SSW 4.0 mph 16.0 mph 81% 0.00 in
13:29 49.0 °F 43.4 °F 30.08 in SW 7.0 mph 16.0 mph 81% 0.00 in
13:34 48.9 °F 43.3 °F 30.08 in SSW 7.0 mph 13.0 mph 81% 0.00 in
13:39 48.8 °F 43.2 °F 30.08 in WSW 4.0 mph 12.0 mph 81% 0.00 in
13:44 48.6 °F 43.4 °F 30.08 in SSW 4.0 mph 14.0 mph 82% 0.00 in
13:49 48.5 °F 43.6 °F 30.08 in SSW 5.0 mph 10.0 mph 83% 0.00 in
13:54 48.4 °F 43.8 °F 30.07 in SE 6.0 mph 13.0 mph 84% 0.00 in
13:59 48.5 °F 43.9 °F 30.07 in SSW 7.0 mph 14.0 mph 84% 0.00 in
14:04 48.5 °F 43.9 °F 30.06 in SSW 7.0 mph 14.0 mph 84% 0.00 in
14:09 48.5 °F 44.2 °F 30.06 in SSW 6.0 mph 13.0 mph 85% 0.00 in
14:14 48.7 °F 44.4 °F 30.06 in SSW 6.0 mph 11.0 mph 85% 0.00 in
14:19 48.6 °F 44.6 °F 30.06 in SW 6.0 mph 13.0 mph 86% 0.00 in
14:24 48.6 °F 44.6 °F 30.05 in SSW 5.0 mph 11.0 mph 86% 0.00 in
14:29 48.7 °F 44.7 °F 30.06 in South 4.0 mph 12.0 mph 86% 0.00 in
14:34 48.7 °F 44.7 °F 30.06 in SSW 5.0 mph 13.0 mph 86% 0.01 in
14:39 48.7 °F 44.7 °F 30.06 in SSW 5.0 mph 13.0 mph 86% 0.01 in
14:44 48.8 °F 44.8 °F 30.06 in SSW 4.0 mph 12.0 mph 86% 0.01 in
14:49 48.8 °F 45.1 °F 30.06 in SSE 6.0 mph 12.0 mph 87% 0.01 in
14:54 48.8 °F 45.1 °F 30.06 in SW 6.0 mph 13.0 mph 87% 0.01 in
14:59 48.8 °F 45.1 °F 30.05 in South 4.0 mph 8.0 mph 87% 0.01 in
15:04 48.8 °F 45.1 °F 30.05 in SW 4.0 mph 11.0 mph 87% 0.01 in
15:09 48.9 °F 45.2 °F 30.04 in SSW 5.0 mph 11.0 mph 87% 0.02 in
15:14 48.8 °F 45.1 °F 30.04 in South 5.0 mph 10.0 mph 87% 0.02 in
15:19 48.9 °F 45.2 °F 30.04 in South 5.0 mph 11.0 mph 87% 0.02 in
15:24 49.0 °F 45.3 °F 30.04 in SSW 6.0 mph 11.0 mph 87% 0.02 in
15:29 49.0 °F 45.6 °F 30.03 in SSE 5.0 mph 13.0 mph 88% 0.02 in
15:35 49.1 °F 45.7 °F 30.05 in South 5.0 mph 13.0 mph 88% 0.01 in
15:40 49.1 °F 45.7 °F 30.05 in SSW 7.0 mph 9.0 mph 88% 0.02 in
15:49 49.0 °F 45.6 °F 30.05 in SSW 6.0 mph 14.0 mph 88% 0.04 in
15:54 49.0 °F 45.6 °F 30.05 in SSW 5.0 mph 13.0 mph 88% 0.05 in
15:59 49.0 °F 45.6 °F 30.06 in South 4.0 mph 10.0 mph 88% 0.06 in
16:04 49.0 °F 45.6 °F 30.06 in South 3.0 mph 10.0 mph 88% 0.07 in
16:09 49.0 °F 45.9 °F 30.05 in SSW 5.0 mph 10.0 mph 89% 0.06 in
16:14 49.0 °F 45.9 °F 30.06 in SSW 4.0 mph 13.0 mph 89% 0.08 in
16:19 49.2 °F 46.1 °F 30.05 in SSW 2.0 mph 10.0 mph 89% 0.09 in
16:24 49.3 °F 46.2 °F 30.05 in South 9.0 mph 12.0 mph 89% 0.10 in
16:29 49.3 °F 46.2 °F 30.05 in South 3.0 mph 9.0 mph 89% 0.11 in
16:34 49.4 °F 46.3 °F 30.05 in SW 6.0 mph 9.0 mph 89% 0.12 in
16:39 49.6 °F 46.5 °F 30.05 in South 4.0 mph 11.0 mph 89% 0.12 in
16:44 49.6 °F 46.5 °F 30.05 in South 5.0 mph 11.0 mph 89% 0.12 in
16:49 49.7 °F 46.9 °F 30.05 in South 3.0 mph 8.0 mph 90% 0.12 in
16:54 49.7 °F 46.9 °F 30.05 in SSW 5.0 mph 10.0 mph 90% 0.12 in
16:59 49.8 °F 47.0 °F 30.05 in SSW 5.0 mph 11.0 mph 90% 0.12 in
17:04 49.9 °F 47.1 °F 30.05 in SSW 5.0 mph 11.0 mph 90% 0.11 in
17:09 50.0 °F 47.2 °F 30.05 in SSW 5.0 mph 10.0 mph 90% 0.13 in
17:14 50.1 °F 47.3 °F 30.06 in SW 6.0 mph 12.0 mph 90% 0.13 in
17:19 50.1 °F 47.3 °F 30.05 in SSW 3.0 mph 9.0 mph 90% 0.13 in
17:24 50.2 °F 47.4 °F 30.05 in SSW 4.0 mph 9.0 mph 90% 0.13 in
17:29 50.3 °F 47.5 °F 30.05 in SSW 4.0 mph 9.0 mph 90% 0.13 in
17:34 50.3 °F 47.5 °F 30.05 in South 4.0 mph 9.0 mph 90% 0.13 in
17:39 50.4 °F 47.6 °F 30.05 in South 3.0 mph 7.0 mph 90% 0.13 in
17:44 50.4 °F 47.9 °F 30.05 in SSW 2.0 mph 9.0 mph 91% 0.13 in
17:49 50.5 °F 48.0 °F 30.04 in South 4.0 mph 9.0 mph 91% 0.14 in
17:54 50.6 °F 48.1 °F 30.04 in South 3.0 mph 6.0 mph 91% 0.15 in
17:59 50.6 °F 48.1 °F 30.04 in South 4.0 mph 7.0 mph 91% 0.15 in
18:04 50.8 °F 48.3 °F 30.04 in South 3.0 mph 9.0 mph 91% 0.16 in
18:09 50.9 °F 48.4 °F 30.03 in Calm   4.0 mph 91% 0.15 in
18:14 50.9 °F 48.4 °F 30.03 in SSW 1.0 mph 4.0 mph 91% 0.14 in
18:19 50.8 °F 48.3 °F 30.02 in SE 3.0 mph 5.0 mph 91% 0.15 in
18:24 50.9 °F 48.4 °F 30.02 in SSE 4.0 mph 5.0 mph 91% 0.14 in
18:29 51.0 °F 48.5 °F 30.02 in SW 4.0 mph 8.0 mph 91% 0.13 in
18:34 51.3 °F 48.8 °F 30.02 in South 5.0 mph 11.0 mph 91% 0.12 in
18:39 52.0 °F 49.7 °F 30.03 in SSW 5.0 mph 14.0 mph 92% 0.11 in
18:44 52.4 °F 50.1 °F 30.03 in SW 6.0 mph 14.0 mph 92% 0.11 in
18:49 52.7 °F 50.4 °F 30.03 in SW 5.0 mph 12.0 mph 92% 0.09 in
18:54 53.2 °F 50.9 °F 30.03 in SW 7.0 mph 13.0 mph 92% 0.07 in
18:59 53.6 °F 51.3 °F 30.02 in SW 4.0 mph 18.0 mph 92% 0.06 in
19:04 54.1 °F 51.8 °F 30.02 in SW 8.0 mph 15.0 mph 92% 0.05 in
19:09 54.5 °F 51.9 °F 30.03 in SSW 11.0 mph 14.0 mph 91% 0.04 in
19:14 54.8 °F 52.2 °F 30.02 in SSW 8.0 mph 20.0 mph 91% 0.03 in
19:19 55.0 °F 52.4 °F 30.03 in SW 8.0 mph 20.0 mph 91% 0.02 in
19:24 55.1 °F 52.5 °F 30.03 in SW 8.0 mph 17.0 mph 91% 0.02 in
19:29 55.2 °F 52.3 °F 30.03 in SW 8.0 mph 17.0 mph 90% 0.02 in
19:34 55.2 °F 52.3 °F 30.03 in SW 9.0 mph 16.0 mph 90% 0.02 in
19:39 55.3 °F 52.4 °F 30.03 in SSW 6.0 mph 12.0 mph 90% 0.02 in
19:44 55.3 °F 52.4 °F 30.03 in SSE 3.0 mph 15.0 mph 90% 0.01 in
19:49 55.4 °F 52.2 °F 30.03 in SW 6.0 mph 15.0 mph 89% 0.01 in
19:54 55.4 °F 52.2 °F 30.03 in SSW 6.0 mph 13.0 mph 89% 0.01 in
19:59 55.4 °F 52.2 °F 30.03 in South 6.0 mph 10.0 mph 89% 0.01 in
20:04 55.6 °F 52.4 °F 30.03 in SSW 7.0 mph 14.0 mph 89% 0.01 in
20:09 55.5 °F 52.0 °F 30.03 in SSW 6.0 mph 12.0 mph 88% 0.02 in
20:14 55.4 °F 51.9 °F 30.03 in South 4.0 mph 13.0 mph 88% 0.02 in
20:19 55.2 °F 51.7 °F 30.04 in WSW 13.0 mph 13.0 mph 88% 0.02 in
20:24 55.3 °F 52.1 °F 30.04 in SSW 6.0 mph 16.0 mph 89% 0.02 in
20:29 55.5 °F 52.3 °F 30.04 in SSW 7.0 mph 16.0 mph 89% 0.02 in
20:34 55.8 °F 52.6 °F 30.04 in SSW 8.0 mph 20.0 mph 89% 0.03 in
20:39 55.8 °F 52.6 °F 30.04 in SW 3.0 mph 13.0 mph 89% 0.04 in
20:44 55.7 °F 52.5 °F 30.04 in SW 4.0 mph 12.0 mph 89% 0.06 in
20:49 55.7 °F 52.5 °F 30.04 in SSW 9.0 mph 14.0 mph 89% 0.07 in
20:54 55.9 °F 53.0 °F 30.05 in SSW 4.0 mph 11.0 mph 90% 0.10 in
20:59 55.9 °F 53.0 °F 30.04 in SSW 6.0 mph 11.0 mph 90% 0.12 in
21:04 56.0 °F 53.1 °F 30.04 in SSW 5.0 mph 11.0 mph 90% 0.13 in
21:09 55.9 °F 53.0 °F 30.04 in SW 3.0 mph 11.0 mph 90% 0.13 in
21:14 55.9 °F 53.0 °F 30.03 in SW 5.0 mph 8.0 mph 90% 0.15 in
21:19 55.9 °F 53.3 °F 30.04 in SSW 1.0 mph 7.0 mph 91% 0.15 in
21:24 55.7 °F 53.1 °F 30.04 in SW 4.0 mph 7.0 mph 91% 0.16 in
21:29 55.5 °F 52.9 °F 30.04 in SSW 3.0 mph 6.0 mph 91% 0.17 in
21:34 55.4 °F 52.8 °F 30.03 in SSW 3.0 mph 7.0 mph 91% 0.17 in
21:39 55.3 °F 52.7 °F 30.03 in SSW 5.0 mph 10.0 mph 91% 0.16 in
21:44 55.2 °F 52.6 °F 30.03 in South 1.0 mph 8.0 mph 91% 0.14 in
21:49 55.2 °F 52.6 °F 30.02 in South 5.0 mph 6.0 mph 91% 0.13 in
21:54 55.2 °F 52.6 °F 30.02 in South 3.0 mph 8.0 mph 91% 0.10 in
21:59 55.2 °F 52.6 °F 30.02 in South 3.0 mph 8.0 mph 91% 0.08 in
22:04 55.3 °F 52.7 °F 30.02 in SSW 4.0 mph 8.0 mph 91% 0.06 in
22:09 55.3 °F 52.7 °F 30.02 in SSW 4.0 mph 10.0 mph 91% 0.05 in
22:14 55.4 °F 52.8 °F 30.03 in SSW 4.0 mph 10.0 mph 91% 0.04 in
22:19 55.7 °F 53.1 °F 30.03 in SSW 5.0 mph 10.0 mph 91% 0.04 in
22:24 56.0 °F 53.7 °F 30.03 in South 5.0 mph 11.0 mph 92% 0.03 in
22:29 56.2 °F 53.6 °F 30.03 in South 4.0 mph 13.0 mph 91% 0.02 in
22:34 56.7 °F 54.1 °F 30.03 in SSW 4.0 mph 11.0 mph 91% 0.01 in
22:39 57.1 °F 54.5 °F 30.03 in SW 6.0 mph 14.0 mph 91% 0.01 in
22:44 57.3 °F 54.7 °F 30.03 in SSW 7.0 mph 13.0 mph 91% 0.01 in
22:49 57.5 °F 54.6 °F 30.03 in SSW 3.0 mph 12.0 mph 90% 0.01 in
22:54 57.6 °F 54.7 °F 30.03 in SSW 6.0 mph 13.0 mph 90% 0.02 in
22:59 57.8 °F 54.9 °F 30.03 in SW 6.0 mph 13.0 mph 90% 0.02 in
23:04 57.8 °F 54.9 °F 30.03 in SW 5.0 mph 10.0 mph 90% 0.02 in
23:09 57.8 °F 54.6 °F 30.03 in SSW 5.0 mph 12.0 mph 89% 0.02 in
23:14 57.8 °F 54.6 °F 30.03 in SSW 3.0 mph 11.0 mph 89% 0.02 in
23:19 57.8 °F 54.6 °F 30.03 in SW 4.0 mph 10.0 mph 89% 0.01 in
23:24 57.7 °F 54.5 °F 30.03 in SSW 4.0 mph 10.0 mph 89% 0.01 in
23:29 57.7 °F 54.5 °F 30.03 in South 4.0 mph 8.0 mph 89% 0.02 in
23:34 57.9 °F 54.7 °F 30.04 in SSW 2.0 mph 9.0 mph 89% 0.02 in
23:39 58.2 °F 55.0 °F 30.04 in West 6.0 mph 14.0 mph 89% 0.06 in
23:44 58.1 °F 54.9 °F 30.05 in SW 7.0 mph 11.0 mph 89% 0.12 in
23:49 58.0 °F 55.1 °F 30.04 in SW 7.0 mph 12.0 mph 90% 0.15 in
23:54 58.0 °F 55.1 °F 30.05 in SW 6.0 mph 12.0 mph 90% 0.17 in
23:59 57.9 °F 55.0 °F 30.04 in SW 5.0 mph 11.0 mph 90% 0.18 in
Buffalo, New York, USA
Compliments of Weather Underground - 2.5 mb